Reddick, IL (60961)

11:51 PM CDT on August 28, 2014 (GMT -0500)
Union Hill | Change Station
CLOSE
Current Station
Personal Weather Station
Location: Union Hill, IL
Elevation: 623 ft
Nearby Weather Stations

Elev 623 ft 41.11 °N, 88.15 °W | Updated 33 seconds ago

Rain
Rain
69.3 °F
Feels Like 69.3 °F
N
2.0
Wind Variable Wind from SSE
Gusts 4.0 mph

Today
High -- | Low -- °F
--% Chance of Precip.
Yesterday
High -- | Low -- °F
Precip. -- in
6:15 AM 7:32 PM
Waxing Crescent, 12% visible
Pressure 30.06 in
Visibility 10.0 miles
Clouds Scattered Clouds 12000 ft
Dew Point 68 °F
Humidity 96%
Rainfall 0.07 in
Snow Depth Not available.
UV 0.0 out of 12
Pollen 8.10 out of 12
Ozone Good
PM2.5 Moderate
Flu Activity Not available.
METAR KIKK 290435Z AUTO 13006KT 10SM RA SCT120 22/20 A3006 RMK AO2 LTG DSNT SW T02170196

More Conditions Fewer Conditions

Pressure 30.06 in
Visibility 10.0 miles
Clouds Scattered Clouds 12000 ft
Dew Point 68 °F
Humidity 96%
Rainfall 0.07 in
Snow Depth Not available.
UV 0.0 out of 12
Pollen 8.10 out of 12
Ozone Good
PM2.5 Moderate
Flu Activity Not available.
METAR KIKK 290435Z AUTO 13006KT 10SM RA SCT120 22/20 A3006 RMK AO2 LTG DSNT SW T02170196

More Conditions Fewer Conditions

10-Day Weather Forecast

Almanac

Astronomy

Aug. 28, 2014 Rise Set
Actual Time 6:15 AM CDT 7:32 PM CDT
Civil Twilight 5:47 AM CDT 8:00 PM CDT
Nautical Twilight 5:12 AM CDT 8:34 PM CDT
Astronomical Twilight 4:36 AM CDT 9:10 PM CDT
Moon 9:09 AM CDT (8/28) 8:53 PM CDT (8/28)
Length of Visible Light 14h 13m
Length of Day
13h 16m
Tomorrow will be 2m 36s shorter.
Waxing Crescent, 12% of the Moon is Illuminated
Aug 29
Waxing Crescent
Sep 2
First Quarter
Sep 8
Full
Sep 15
Last Quarter
Sep 24
New

Yesterday's Extremes

State Highs State Lows

Community

WunderPhotos

Upload Photos

1,748,186 photos uploaded!

Nearby

Air Quality

  Air Quality AQ Index Pollutant
Yesterday Moderate
PM2.5
Yesterday Good
OZONE
Current Moderate
PM2.5
Current Good
OZONE
Thursday Moderate
PM2.5
Friday Moderate
PM2.5
Saturday Good
PM2.5
Sunday Moderate
PM2.5

Snow Depth

Station Depth Elevation
No new snow has been reported.

Earthquake Activity

City Distance Mag. Time & Date
No recent earthquake activity has been reported nearby.
Minimum magnitude displayed is 2.5.

Coastal Water Temperatures

Place Temperature
No Stations Reporting

Nearby Weather Stations